createdAt,value
2019-02-23T00:00:13.501Z,0.00
2019-02-23T00:01:13.492Z,0.00
2019-02-23T00:02:13.482Z,0.00
2019-02-23T00:03:13.473Z,0.00
2019-02-23T00:04:13.462Z,0.00
2019-02-23T00:05:13.450Z,0.00
2019-02-23T00:06:13.445Z,0.00
2019-02-23T00:07:13.433Z,0.00
2019-02-23T00:08:13.424Z,0.00
2019-02-23T00:09:13.413Z,0.00
2019-02-23T00:10:13.405Z,0.00
2019-02-23T00:11:13.400Z,0.00
2019-02-23T00:12:13.383Z,0.00
2019-02-23T00:13:13.379Z,0.00
2019-02-23T00:14:13.366Z,0.00
2019-02-23T00:15:13.358Z,0.00
2019-02-23T00:16:13.350Z,0.00
2019-02-23T00:17:13.341Z,0.00
2019-02-23T00:18:13.328Z,0.00
2019-02-23T00:19:24.205Z,0.00
2019-02-23T00:20:13.312Z,0.00
2019-02-23T00:21:13.303Z,0.00
2019-02-23T00:22:13.293Z,0.00
2019-02-23T00:23:13.282Z,0.00
2019-02-23T00:24:13.277Z,0.00
2019-02-23T00:25:13.262Z,0.00
2019-02-23T00:26:13.251Z,0.00
2019-02-23T00:27:13.249Z,0.00
2019-02-23T00:28:13.233Z,0.00
2019-02-23T00:29:13.224Z,0.00
2019-02-23T00:30:13.213Z,0.00
2019-02-23T00:31:14.068Z,0.00
2019-02-23T00:32:13.201Z,0.00
2019-02-23T00:33:13.188Z,0.00
2019-02-23T00:34:13.177Z,0.00
2019-02-23T00:35:13.166Z,0.00
2019-02-23T00:36:13.157Z,0.00
2019-02-23T00:37:13.138Z,0.00
2019-02-23T00:38:13.140Z,0.00
2019-02-23T00:39:13.129Z,0.00
2019-02-23T00:40:13.118Z,0.00
2019-02-23T00:41:13.111Z,0.00
2019-02-23T00:42:13.124Z,0.00
2019-02-23T00:43:13.090Z,0.00
2019-02-23T00:44:13.083Z,0.00
2019-02-23T00:45:13.074Z,0.00
2019-02-23T00:46:13.072Z,0.00
2019-02-23T00:47:13.051Z,0.00
2019-02-23T00:48:13.051Z,0.00
2019-02-23T00:49:13.036Z,0.00
2019-02-23T00:50:13.022Z,0.00
2019-02-23T00:51:13.012Z,0.00
2019-02-23T00:52:13.004Z,0.00
2019-02-23T00:53:12.994Z,0.00
2019-02-23T00:54:12.974Z,0.00
2019-02-23T00:55:13.052Z,0.00
2019-02-23T00:56:12.969Z,0.00
2019-02-23T00:57:12.956Z,0.00
2019-02-23T00:58:12.946Z,0.00
2019-02-23T00:59:12.936Z,0.00
2019-02-23T01:00:12.922Z,0.00
2019-02-23T01:01:12.990Z,0.00
2019-02-23T01:02:12.908Z,0.00
2019-02-23T01:03:12.902Z,0.00
2019-02-23T01:04:12.888Z,0.00
2019-02-23T01:05:12.880Z,0.00
2019-02-23T01:06:12.869Z,0.00
2019-02-23T01:07:12.861Z,0.00
2019-02-23T01:08:12.850Z,0.00
2019-02-23T01:09:12.850Z,0.00
2019-02-23T01:10:12.832Z,0.00
2019-02-23T01:11:12.823Z,0.00
2019-02-23T01:12:12.814Z,0.00
2019-02-23T01:13:12.805Z,0.00
2019-02-23T01:14:12.791Z,0.00
2019-02-23T01:15:12.785Z,0.00
2019-02-23T01:16:12.775Z,0.00
2019-02-23T01:17:12.769Z,0.00
2019-02-23T01:18:12.823Z,0.00
2019-02-23T01:19:12.748Z,0.00
2019-02-23T01:20:12.737Z,0.00
2019-02-23T01:21:12.729Z,0.00
2019-02-23T01:22:12.719Z,0.00
2019-02-23T01:23:12.709Z,0.00
2019-02-23T01:24:12.702Z,0.00
2019-02-23T01:25:12.694Z,0.00
2019-02-23T01:26:12.680Z,0.00
2019-02-23T01:27:12.674Z,0.00
2019-02-23T01:28:12.663Z,0.00
2019-02-23T01:29:12.654Z,0.00
2019-02-23T01:30:12.644Z,0.00
2019-02-23T01:31:12.636Z,0.00
2019-02-23T01:32:12.616Z,0.00
2019-02-23T01:33:12.613Z,0.00
2019-02-23T01:34:12.607Z,0.00
2019-02-23T01:35:12.598Z,0.00
2019-02-23T01:36:12.589Z,0.00
2019-02-23T01:37:12.582Z,0.00
2019-02-23T01:38:12.568Z,0.00
2019-02-23T01:39:12.563Z,0.00
2019-02-23T01:40:12.553Z,0.00
2019-02-23T01:41:12.542Z,0.00
2019-02-23T01:42:12.533Z,0.00
2019-02-23T01:43:12.525Z,0.00
2019-02-23T01:44:12.519Z,0.00
2019-02-23T01:45:12.497Z,0.00
2019-02-23T01:46:12.497Z,0.00
2019-02-23T01:47:12.485Z,0.00
2019-02-23T01:48:12.482Z,0.00
2019-02-23T01:49:12.475Z,0.00
2019-02-23T01:50:12.569Z,0.00
2019-02-23T01:51:12.450Z,0.00
2019-02-23T01:52:12.444Z,0.00
2019-02-23T01:53:12.436Z,0.00
2019-02-23T01:54:12.427Z,0.00
2019-02-23T01:55:12.416Z,0.00
2019-02-23T01:56:12.405Z,0.00
2019-02-23T01:57:12.398Z,0.00
2019-02-23T01:58:12.386Z,0.00
2019-02-23T01:59:12.375Z,0.00
2019-02-23T02:00:12.366Z,0.00
2019-02-23T02:01:12.359Z,0.00
2019-02-23T02:02:12.349Z,0.00
2019-02-23T02:03:12.341Z,0.00
2019-02-23T02:04:12.319Z,0.00
2019-02-23T02:05:12.323Z,0.00
2019-02-23T02:06:12.311Z,0.00
2019-02-23T02:07:12.302Z,0.00
2019-02-23T02:08:12.293Z,0.00
2019-02-23T02:09:12.285Z,0.00
2019-02-23T02:10:12.273Z,0.00
2019-02-23T02:11:12.263Z,0.00
2019-02-23T02:12:12.256Z,0.00
2019-02-23T02:13:12.248Z,0.00
2019-02-23T02:14:12.235Z,0.00
2019-02-23T02:15:12.227Z,0.00
2019-02-23T02:16:12.221Z,0.00
2019-02-23T02:17:12.212Z,0.00
2019-02-23T02:18:12.198Z,0.00
2019-02-23T02:19:12.189Z,0.00
2019-02-23T02:20:12.179Z,0.00
2019-02-23T02:21:12.170Z,0.00
2019-02-23T02:22:12.160Z,0.00
2019-02-23T02:23:12.146Z,0.00
2019-02-23T02:24:12.139Z,0.00
2019-02-23T02:25:12.130Z,0.00
2019-02-23T02:26:12.121Z,0.00
2019-02-23T02:27:12.115Z,0.00
2019-02-23T02:28:12.101Z,0.00
2019-02-23T02:29:12.094Z,0.00
2019-02-23T02:30:12.082Z,0.00
2019-02-23T02:31:12.075Z,0.00
2019-02-23T02:32:12.069Z,0.00
2019-02-23T02:33:12.056Z,0.00
2019-02-23T02:34:12.049Z,0.00
2019-02-23T02:35:12.056Z,0.00
2019-02-23T02:36:12.027Z,0.00
2019-02-23T02:37:12.020Z,0.00
2019-02-23T02:38:12.007Z,0.00
2019-02-23T02:39:11.998Z,0.00
2019-02-23T02:40:11.989Z,0.00
2019-02-23T02:41:11.979Z,0.00
2019-02-23T02:42:11.968Z,0.00
2019-02-23T02:43:11.956Z,0.00
2019-02-23T02:44:11.946Z,0.00
2019-02-23T02:45:11.952Z,0.00
2019-02-23T02:46:11.934Z,0.00
2019-02-23T02:47:11.921Z,0.00
2019-02-23T02:48:11.912Z,0.00
2019-02-23T02:49:11.901Z,0.00
2019-02-23T02:50:23.744Z,0.00
2019-02-23T02:51:11.884Z,0.00
2019-02-23T02:52:11.873Z,0.00
2019-02-23T02:53:11.863Z,0.00
2019-02-23T02:54:11.853Z,0.00
2019-02-23T02:55:11.841Z,0.00
2019-02-23T02:56:11.835Z,0.00
2019-02-23T02:57:11.827Z,0.00
2019-02-23T02:58:11.816Z,0.00
2019-02-23T02:59:11.804Z,0.00
2019-02-23T03:00:11.799Z,0.00
2019-02-23T03:01:11.787Z,0.00
2019-02-23T03:02:11.776Z,0.00
2019-02-23T03:03:11.770Z,0.00
2019-02-23T03:04:11.759Z,0.00
2019-02-23T03:05:11.750Z,0.00
2019-02-23T03:06:11.735Z,0.00
2019-02-23T03:07:11.732Z,0.00
2019-02-23T03:08:11.715Z,0.00
2019-02-23T03:09:11.705Z,0.00
2019-02-23T03:10:11.693Z,0.00
2019-02-23T03:11:11.688Z,0.00
2019-02-23T03:12:11.678Z,0.00
2019-02-23T03:13:11.658Z,0.00
2019-02-23T03:14:11.656Z,0.00
2019-02-23T03:15:11.648Z,0.00
2019-02-23T03:16:11.682Z,0.00
2019-02-23T03:17:11.630Z,0.00
2019-02-23T03:18:11.617Z,0.00
2019-02-23T03:19:11.599Z,0.00
2019-02-23T03:20:11.600Z,0.00
2019-02-23T03:21:11.590Z,0.00
2019-02-23T03:22:11.578Z,0.00
2019-02-23T03:23:11.567Z,0.00
2019-02-23T03:24:11.560Z,0.00
2019-02-23T03:25:11.550Z,0.00
2019-02-23T03:26:11.541Z,0.00
2019-02-23T03:27:11.532Z,0.00
2019-02-23T03:28:11.523Z,0.00
2019-02-23T03:29:11.511Z,0.00
2019-02-23T03:30:11.516Z,0.00
2019-02-23T03:31:11.491Z,0.00
2019-02-23T03:32:11.481Z,0.00
2019-02-23T03:33:11.466Z,0.00
2019-02-23T03:34:11.465Z,0.00
2019-02-23T03:35:11.450Z,0.00
2019-02-23T03:36:11.441Z,0.00
2019-02-23T03:37:11.434Z,0.00
2019-02-23T03:38:11.418Z,0.00
2019-02-23T03:39:11.409Z,0.00
2019-02-23T03:40:11.399Z,0.00
2019-02-23T03:41:11.389Z,0.00
2019-02-23T03:42:11.379Z,0.00
2019-02-23T03:43:11.374Z,0.00
2019-02-23T03:44:11.360Z,0.00
2019-02-23T03:45:11.348Z,0.00
2019-02-23T03:46:11.341Z,0.00
2019-02-23T03:47:11.331Z,0.00
2019-02-23T03:48:11.320Z,0.00
2019-02-23T03:49:11.310Z,0.00
2019-02-23T03:50:11.297Z,0.00
2019-02-23T03:51:11.334Z,0.00
2019-02-23T03:52:13.721Z,0.00
2019-02-23T03:53:11.273Z,0.00
2019-02-23T03:54:11.269Z,0.00
2019-02-23T03:55:11.251Z,0.00
2019-02-23T03:56:11.239Z,0.00
2019-02-23T03:57:11.229Z,0.00
2019-02-23T03:58:11.218Z,0.00
2019-02-23T03:59:11.208Z,0.00
2019-02-23T04:00:11.198Z,0.00
2019-02-23T04:01:11.189Z,0.00
2019-02-23T04:02:11.178Z,0.00
2019-02-23T04:03:11.166Z,0.00
2019-02-23T04:04:11.161Z,0.00
2019-02-23T04:05:11.151Z,0.00
2019-02-23T04:06:11.137Z,0.00
2019-02-23T04:07:11.127Z,0.00
2019-02-23T04:08:11.117Z,0.00
2019-02-23T04:09:11.107Z,0.00
2019-02-23T04:10:11.099Z,0.00
2019-02-23T04:11:11.086Z,0.00
2019-02-23T04:12:11.077Z,0.00
2019-02-23T04:13:11.066Z,0.00
2019-02-23T04:14:11.056Z,0.00
2019-02-23T04:15:11.043Z,0.00
2019-02-23T04:16:11.035Z,0.00
2019-02-23T04:17:11.025Z,0.00
2019-02-23T04:18:11.016Z,0.00
2019-02-23T04:19:11.003Z,0.00
2019-02-23T04:20:10.998Z,0.00
2019-02-23T04:21:10.982Z,0.00
2019-02-23T04:22:10.973Z,0.00
2019-02-23T04:23:10.968Z,0.00
2019-02-23T04:24:10.954Z,0.00
2019-02-23T04:25:10.942Z,0.00
2019-02-23T04:26:10.933Z,0.00
2019-02-23T04:27:10.919Z,0.00
2019-02-23T04:28:10.906Z,0.00
2019-02-23T04:29:10.902Z,0.00
2019-02-23T04:30:10.892Z,0.00
2019-02-23T04:31:10.879Z,0.00
2019-02-23T04:32:10.868Z,0.00
2019-02-23T04:33:10.861Z,0.00
2019-02-23T04:34:10.851Z,0.00
2019-02-23T04:35:10.837Z,0.00
2019-02-23T04:36:10.831Z,0.00
2019-02-23T04:37:10.818Z,0.00
2019-02-23T04:38:10.798Z,0.00
2019-02-23T04:39:10.792Z,0.00
2019-02-23T04:40:10.788Z,0.00
2019-02-23T04:41:10.777Z,0.00
2019-02-23T04:42:12.926Z,0.00
2019-02-23T04:43:10.753Z,0.00
2019-02-23T04:44:10.747Z,0.00
2019-02-23T04:45:10.731Z,0.00
2019-02-23T04:46:10.719Z,0.00
2019-02-23T04:47:10.708Z,0.00
2019-02-23T04:48:10.702Z,0.00
2019-02-23T04:49:10.691Z,0.00
2019-02-23T04:50:10.677Z,0.00
2019-02-23T04:51:14.315Z,0.00
2019-02-23T04:52:10.660Z,0.00
2019-02-23T04:53:10.648Z,0.00
2019-02-23T04:54:10.635Z,0.00
2019-02-23T04:55:10.629Z,0.00
2019-02-23T04:56:10.618Z,0.00
2019-02-23T04:57:10.621Z,0.00
2019-02-23T04:58:10.597Z,0.00
2019-02-23T04:59:10.605Z,0.00
2019-02-23T05:00:10.572Z,0.00
2019-02-23T05:01:10.577Z,0.00
2019-02-23T05:02:10.545Z,0.00
2019-02-23T05:03:10.543Z,0.00
2019-02-23T05:04:10.524Z,0.00
2019-02-23T05:05:10.523Z,0.00
2019-02-23T05:06:10.506Z,0.00
2019-02-23T05:07:10.495Z,0.00
2019-02-23T05:08:10.486Z,0.00
2019-02-23T05:09:10.474Z,0.00
2019-02-23T05:10:10.473Z,0.00
2019-02-23T05:11:10.456Z,0.00
2019-02-23T05:12:10.456Z,0.00
2019-02-23T05:13:10.437Z,0.00
2019-02-23T05:14:10.418Z,0.00
2019-02-23T05:15:10.413Z,0.00
2019-02-23T05:16:10.400Z,0.00
2019-02-23T05:17:10.390Z,0.00
2019-02-23T05:18:10.377Z,0.00
2019-02-23T05:19:10.366Z,0.00
2019-02-23T05:20:10.354Z,0.00
2019-02-23T05:21:10.345Z,0.00
2019-02-23T05:22:10.339Z,0.00
2019-02-23T05:23:10.327Z,0.00
2019-02-23T05:24:10.318Z,0.00
2019-02-23T05:25:10.302Z,0.00
2019-02-23T05:26:10.289Z,0.00
2019-02-23T05:27:10.281Z,0.00
2019-02-23T05:28:10.269Z,0.00
2019-02-23T05:29:10.258Z,0.00
2019-02-23T05:30:10.252Z,0.00
2019-02-23T05:31:10.236Z,0.00
2019-02-23T05:32:10.266Z,0.00
2019-02-23T05:33:10.217Z,0.00
2019-02-23T05:34:10.202Z,0.00
2019-02-23T05:35:10.194Z,0.00
2019-02-23T05:36:10.180Z,0.00
2019-02-23T05:37:10.176Z,0.00
2019-02-23T05:38:10.169Z,0.00
2019-02-23T05:39:10.149Z,0.00
2019-02-23T05:40:10.139Z,0.00
2019-02-23T05:41:10.127Z,0.00
2019-02-23T05:42:10.111Z,0.00
2019-02-23T05:43:10.102Z,4.00
2019-02-23T05:44:10.097Z,0.00
2019-02-23T05:45:10.084Z,4.00
2019-02-23T05:46:10.073Z,4.00
2019-02-23T05:47:10.061Z,4.00
2019-02-23T05:48:10.050Z,4.00
2019-02-23T05:49:10.037Z,4.00
2019-02-23T05:50:10.031Z,8.00
2019-02-23T05:51:10.016Z,8.00
2019-02-23T05:52:10.015Z,8.00
2019-02-23T05:53:10.001Z,12.00
2019-02-23T05:54:09.983Z,16.00
2019-02-23T05:55:09.974Z,20.00
2019-02-23T05:56:13.773Z,24.00
2019-02-23T05:57:09.954Z,28.00
2019-02-23T05:58:09.945Z,32.00
2019-02-23T05:59:09.934Z,40.00
2019-02-23T06:00:09.921Z,44.00
2019-02-23T06:01:09.898Z,52.00
2019-02-23T06:02:09.900Z,68.00
2019-02-23T06:03:09.884Z,76.00
2019-02-23T06:04:09.875Z,88.00
2019-02-23T06:05:09.870Z,96.00
2019-02-23T06:06:09.852Z,120.00
2019-02-23T06:07:09.842Z,140.00
2019-02-23T06:08:09.831Z,156.00
2019-02-23T06:09:09.821Z,184.00
2019-02-23T06:10:09.808Z,196.00
2019-02-23T06:11:09.801Z,220.00
2019-02-23T06:12:09.792Z,264.00
2019-02-23T06:13:09.778Z,288.00
2019-02-23T06:14:09.767Z,320.00
2019-02-23T06:15:09.756Z,372.00
2019-02-23T06:16:09.744Z,396.00
2019-02-23T06:17:09.735Z,420.00
2019-02-23T06:18:09.721Z,460.00
2019-02-23T06:19:09.711Z,548.00
2019-02-23T06:20:09.713Z,572.00
2019-02-23T06:21:09.684Z,628.00
2019-02-23T06:22:09.682Z,644.00
2019-02-23T06:23:09.664Z,652.00
2019-02-23T06:24:09.657Z,732.00
2019-02-23T06:25:09.682Z,720.00
2019-02-23T06:26:09.637Z,792.00
2019-02-23T06:27:09.624Z,860.00
2019-02-23T06:28:09.616Z,932.00
2019-02-23T06:29:09.602Z,920.00
2019-02-23T06:30:09.595Z,992.00
2019-02-23T06:31:09.585Z,1052.00
2019-02-23T06:32:09.573Z,1088.00
2019-02-23T06:33:09.558Z,1120.00
2019-02-23T06:34:16.099Z,1196.00
2019-02-23T06:35:09.555Z,1224.00
2019-02-23T06:36:09.526Z,1332.00
2019-02-23T06:37:09.521Z,1392.00
2019-02-23T06:38:09.505Z,1352.00
2019-02-23T06:39:09.497Z,1384.00
2019-02-23T06:40:09.483Z,1436.00
2019-02-23T06:41:09.471Z,1512.00
2019-02-23T06:42:09.458Z,1712.00
2019-02-23T06:43:09.449Z,1656.00
2019-02-23T06:44:09.438Z,1756.00
2019-02-23T06:45:09.425Z,1800.00
2019-02-23T06:46:09.419Z,1864.00
2019-02-23T06:47:09.405Z,2144.00
2019-02-23T06:48:09.404Z,2264.00
2019-02-23T06:49:09.384Z,2004.00
2019-02-23T06:50:09.380Z,1868.00
2019-02-23T06:51:09.367Z,2044.00
2019-02-23T06:52:09.353Z,2148.00
2019-02-23T06:53:09.343Z,2444.00
2019-02-23T06:54:09.328Z,2224.00
2019-02-23T06:55:09.321Z,2240.00
2019-02-23T06:56:09.309Z,2360.00
2019-02-23T06:57:09.297Z,2424.00
2019-02-23T06:58:09.280Z,2428.00
2019-02-23T06:59:09.281Z,2972.00
2019-02-23T07:00:09.264Z,2840.00
2019-02-23T07:01:09.255Z,2856.00
2019-02-23T07:02:09.243Z,2672.00
2019-02-23T07:03:09.303Z,3120.00
2019-02-23T07:04:09.219Z,2800.00
2019-02-23T07:05:09.214Z,2848.00
2019-02-23T07:06:09.203Z,2792.00
2019-02-23T07:07:09.190Z,2732.00
2019-02-23T07:08:09.179Z,2712.00
2019-02-23T07:09:09.158Z,2968.00
2019-02-23T07:10:09.153Z,2988.00
2019-02-23T07:11:09.143Z,2816.00
2019-02-23T07:12:09.137Z,3788.00
2019-02-23T07:13:09.124Z,4028.00
2019-02-23T07:14:09.119Z,4036.00
2019-02-23T07:15:09.149Z,3528.00
2019-02-23T07:16:09.093Z,3620.00
2019-02-23T07:17:09.085Z,3900.00
2019-02-23T07:18:09.072Z,5696.00
2019-02-23T07:19:09.063Z,4544.00
2019-02-23T07:20:09.054Z,5540.00
2019-02-23T07:21:09.035Z,4604.00
2019-02-23T07:22:15.603Z,4448.00
2019-02-23T07:23:09.022Z,5252.00
2019-02-23T07:24:09.012Z,4688.00
2019-02-23T07:25:09.003Z,6696.00
2019-02-23T07:26:08.990Z,6172.00
2019-02-23T07:27:08.977Z,5820.00
2019-02-23T07:28:10.897Z,6608.00
2019-02-23T07:29:08.960Z,7712.00
2019-02-23T07:30:08.949Z,7400.00
2019-02-23T07:31:08.939Z,7884.00
2019-02-23T07:32:08.930Z,7660.00
2019-02-23T07:33:08.909Z,6880.00
2019-02-23T07:34:08.911Z,5200.00
2019-02-23T07:35:08.899Z,6264.00
2019-02-23T07:36:08.890Z,7104.00
2019-02-23T07:37:08.880Z,4792.00
2019-02-23T07:38:08.876Z,5868.00
2019-02-23T07:39:08.862Z,6924.00
2019-02-23T07:40:08.850Z,6584.00
2019-02-23T07:41:08.844Z,5352.00
2019-02-23T07:42:08.835Z,5756.00
2019-02-23T07:43:08.822Z,7712.00
2019-02-23T07:44:08.811Z,6676.00
2019-02-23T07:45:08.803Z,6428.00
2019-02-23T07:46:08.791Z,9520.00
2019-02-23T07:47:08.782Z,7424.00
2019-02-23T07:48:08.774Z,7004.00
2019-02-23T07:49:08.763Z,7116.00
2019-02-23T07:50:08.759Z,8140.00
2019-02-23T07:51:08.747Z,7144.00
2019-02-23T07:52:08.735Z,6336.00
2019-02-23T07:53:08.726Z,9804.00
2019-02-23T07:54:08.716Z,10928.00
2019-02-23T07:55:08.708Z,8360.00
2019-02-23T07:56:08.698Z,10660.00
2019-02-23T07:57:08.689Z,13088.00
2019-02-23T07:58:08.682Z,12936.00
2019-02-23T07:59:08.670Z,14112.00
2019-02-23T08:00:08.663Z,13248.00
2019-02-23T08:01:08.652Z,13408.00
2019-02-23T08:02:08.643Z,17088.00
2019-02-23T08:03:08.642Z,13580.00
2019-02-23T08:04:08.629Z,14784.00
2019-02-23T08:05:08.621Z,19008.00
2019-02-23T08:06:08.613Z,15040.00
2019-02-23T08:07:08.600Z,12048.00
2019-02-23T08:08:08.617Z,7892.00
2019-02-23T08:09:08.594Z,7332.00
2019-02-23T08:10:08.591Z,11116.00
2019-02-23T08:11:08.588Z,8652.00
2019-02-23T08:12:08.577Z,10364.00
2019-02-23T08:13:08.570Z,8556.00
2019-02-23T08:14:08.559Z,11488.00
2019-02-23T08:15:08.555Z,8796.00
2019-02-23T08:16:08.539Z,6616.00
2019-02-23T08:17:08.545Z,10400.00
2019-02-23T08:18:08.537Z,11312.00
2019-02-23T08:19:08.529Z,7708.00
2019-02-23T08:20:08.525Z,9304.00
2019-02-23T08:21:08.517Z,8364.00
2019-02-23T08:22:08.510Z,10728.00
2019-02-23T08:23:08.503Z,5620.00
2019-02-23T08:24:08.497Z,5812.00
2019-02-23T08:25:08.487Z,7184.00
2019-02-23T08:26:08.483Z,6668.00
2019-02-23T08:27:08.476Z,5360.00
2019-02-23T08:28:08.470Z,6244.00
2019-02-23T08:29:08.458Z,6048.00
2019-02-23T08:30:08.457Z,10580.00
2019-02-23T08:31:08.448Z,10400.00
2019-02-23T08:32:08.442Z,12696.00
2019-02-23T08:33:08.435Z,13028.00
2019-02-23T08:34:08.428Z,12960.00
2019-02-23T08:35:08.422Z,13100.00
2019-02-23T08:36:08.416Z,12884.00
2019-02-23T08:37:08.407Z,13140.00
2019-02-23T08:38:08.423Z,13200.00
2019-02-23T08:39:08.400Z,13020.00
2019-02-23T08:40:08.393Z,12800.00
2019-02-23T08:41:08.389Z,6736.00
2019-02-23T08:42:08.383Z,7504.00
2019-02-23T08:43:08.386Z,12612.00
2019-02-23T08:44:08.376Z,9832.00
2019-02-23T08:45:08.369Z,11224.00
2019-02-23T08:46:08.365Z,7812.00
2019-02-23T08:47:08.365Z,6656.00
2019-02-23T08:48:08.358Z,5848.00
2019-02-23T08:49:08.353Z,6116.00
2019-02-23T08:50:08.346Z,10120.00
2019-02-23T08:51:08.340Z,8000.00
2019-02-23T08:52:08.335Z,5908.00
2019-02-23T08:53:08.336Z,9312.00
2019-02-23T08:54:08.331Z,7212.00
2019-02-23T08:55:08.323Z,10924.00
2019-02-23T08:56:08.315Z,12256.00
2019-02-23T08:57:08.311Z,6612.00
2019-02-23T08:58:08.303Z,8584.00
2019-02-23T08:59:08.300Z,10200.00
2019-02-23T09:00:08.294Z,13024.00
2019-02-23T09:01:08.289Z,6372.00
2019-02-23T09:02:08.283Z,11964.00
2019-02-23T09:03:08.284Z,9540.00
2019-02-23T09:04:08.273Z,13156.00
2019-02-23T09:05:08.271Z,14380.00
2019-02-23T09:06:08.261Z,14768.00
2019-02-23T09:07:08.257Z,13048.00
2019-02-23T09:08:08.251Z,13516.00
2019-02-23T09:09:08.307Z,12832.00
2019-02-23T09:10:08.243Z,13100.00
2019-02-23T09:11:08.239Z,13064.00
2019-02-23T09:12:08.235Z,12916.00
2019-02-23T09:13:08.232Z,13108.00
2019-02-23T09:14:08.218Z,12884.00
2019-02-23T09:15:08.224Z,13020.00
2019-02-23T09:16:08.225Z,13004.00
2019-02-23T09:17:08.218Z,13160.00
2019-02-23T09:18:08.214Z,12988.00
2019-02-23T09:19:08.210Z,12904.00
2019-02-23T09:20:08.200Z,12804.00
2019-02-23T09:21:08.199Z,12928.00
2019-02-23T09:22:08.200Z,13024.00
2019-02-23T09:23:08.199Z,13072.00
2019-02-23T09:24:08.198Z,12808.00
2019-02-23T09:25:08.197Z,12796.00
2019-02-23T09:26:08.192Z,12732.00
2019-02-23T09:27:08.194Z,12956.00
2019-02-23T09:28:08.198Z,12848.00
2019-02-23T09:29:08.183Z,12956.00
2019-02-23T09:30:08.186Z,13116.00
2019-02-23T09:31:08.173Z,13084.00
2019-02-23T09:32:08.184Z,13016.00
2019-02-23T09:33:08.184Z,13108.00
2019-02-23T09:34:08.178Z,13356.00
2019-02-23T09:35:08.179Z,13184.00
2019-02-23T09:36:08.181Z,13168.00
2019-02-23T09:37:08.177Z,13212.00
2019-02-23T09:38:08.177Z,13328.00
2019-02-23T09:39:08.176Z,13040.00
2019-02-23T09:40:08.188Z,13332.00
2019-02-23T09:41:08.178Z,13160.00
2019-02-23T09:42:08.176Z,13432.00
2019-02-23T09:43:08.175Z,13424.00
2019-02-23T09:44:08.196Z,13440.00
2019-02-23T09:45:08.175Z,13536.00
2019-02-23T09:46:08.163Z,13672.00
2019-02-23T09:47:08.170Z,13716.00
2019-02-23T09:48:08.167Z,14092.00
2019-02-23T09:49:08.172Z,14380.00
2019-02-23T09:50:08.179Z,14524.00
2019-02-23T09:51:08.172Z,14840.00
2019-02-23T09:52:08.172Z,15076.00
2019-02-23T09:53:11.155Z,15108.00
2019-02-23T09:54:08.173Z,12972.00
2019-02-23T09:55:08.163Z,12056.00
2019-02-23T09:56:08.175Z,11384.00
2019-02-23T09:57:08.176Z,11192.00
2019-02-23T09:58:08.179Z,12880.00
2019-02-23T09:59:08.173Z,13408.00
2019-02-23T10:00:08.176Z,14664.00
2019-02-23T10:01:08.176Z,14816.00
2019-02-23T10:02:08.175Z,15952.00
2019-02-23T10:03:08.172Z,16672.00
2019-02-23T10:04:08.172Z,16704.00
2019-02-23T10:05:08.199Z,15832.00
2019-02-23T10:06:08.217Z,14764.00
2019-02-23T10:07:08.170Z,14532.00
2019-02-23T10:08:08.178Z,14692.00
2019-02-23T10:09:08.181Z,14228.00
2019-02-23T10:10:08.171Z,15612.00
2019-02-23T10:11:08.175Z,15396.00
2019-02-23T10:12:08.172Z,14688.00
2019-02-23T10:13:08.173Z,15108.00
2019-02-23T10:14:08.176Z,13940.00
2019-02-23T12:46:45.023Z,5708.00
2019-02-23T12:47:45.019Z,5484.00
2019-02-23T12:49:38.970Z,5292.00
2019-02-23T12:50:38.566Z,5292.00
2019-02-23T12:51:38.572Z,5272.00
2019-02-23T12:52:38.560Z,5328.00
2019-02-23T12:53:38.558Z,5356.00
2019-02-23T12:54:38.557Z,5424.00
2019-02-23T12:55:38.551Z,5500.00
2019-02-23T12:56:38.545Z,5504.00
2019-02-23T12:57:38.542Z,5532.00
2019-02-23T12:58:38.539Z,5524.00
2019-02-23T12:59:38.528Z,5520.00
2019-02-23T13:00:38.531Z,5544.00
2019-02-23T13:01:38.523Z,5588.00
2019-02-23T13:02:38.518Z,5596.00
2019-02-23T13:03:38.508Z,5624.00
2019-02-23T13:04:38.508Z,5660.00
2019-02-23T13:05:40.723Z,5704.00
2019-02-23T13:06:38.520Z,5724.00
2019-02-23T13:07:38.491Z,5676.00
2019-02-23T13:08:38.484Z,5640.00
2019-02-23T13:09:38.501Z,5608.00
2019-02-23T13:10:38.479Z,5528.00
2019-02-23T13:11:38.473Z,5412.00
2019-02-23T13:12:38.460Z,5268.00
2019-02-23T13:13:38.463Z,5224.00
2019-02-23T13:14:38.445Z,5176.00
2019-02-23T13:15:38.449Z,5140.00
2019-02-23T13:16:38.440Z,5160.00
2019-02-23T13:17:38.434Z,5128.00
2019-02-23T13:18:38.430Z,5152.00
2019-02-23T13:19:38.424Z,5144.00
2019-02-23T13:20:38.417Z,5148.00
2019-02-23T13:21:38.411Z,5120.00
2019-02-23T13:22:38.404Z,5120.00
2019-02-23T13:23:38.397Z,5160.00
2019-02-23T13:24:38.398Z,5224.00
2019-02-23T13:25:38.384Z,5232.00
2019-02-23T13:26:38.379Z,5232.00
2019-02-23T13:27:38.396Z,5252.00
2019-02-23T13:28:38.366Z,5228.00
2019-02-23T13:29:38.362Z,5228.00
2019-02-23T13:30:38.349Z,5204.00
2019-02-23T13:31:38.363Z,5144.00
2019-02-23T13:32:38.343Z,5072.00
2019-02-23T13:33:38.331Z,4940.00
2019-02-23T13:34:38.331Z,4928.00
2019-02-23T13:35:38.322Z,4924.00
2019-02-23T13:36:38.320Z,4900.00
2019-02-23T13:37:38.309Z,4876.00
2019-02-23T13:38:38.300Z,4868.00
2019-02-23T13:39:38.299Z,4936.00
2019-02-23T13:40:38.306Z,5000.00
2019-02-23T13:41:38.282Z,5036.00
2019-02-23T13:42:38.276Z,5080.00
2019-02-23T13:43:38.270Z,5116.00
2019-02-23T13:44:38.265Z,5068.00
2019-02-23T13:45:38.256Z,5044.00
2019-02-23T13:46:38.246Z,4988.00
2019-02-23T13:47:38.250Z,4928.00
2019-02-23T13:48:38.237Z,4860.00
2019-02-23T13:49:38.228Z,4804.00
2019-02-23T13:50:38.224Z,4780.00
2019-02-23T13:51:38.218Z,4716.00
2019-02-23T13:52:38.208Z,4668.00
2019-02-23T13:53:38.197Z,4644.00
2019-02-23T13:54:39.160Z,4616.00
2019-02-23T13:55:39.938Z,4640.00
2019-02-23T13:56:38.199Z,4600.00
2019-02-23T13:57:38.175Z,4636.00
2019-02-23T13:58:38.169Z,4680.00
2019-02-23T13:59:38.162Z,4760.00
2019-02-23T14:00:38.162Z,4800.00
2019-02-23T14:01:38.149Z,4832.00
2019-02-23T14:02:38.145Z,4856.00
2019-02-23T14:03:38.136Z,4836.00
2019-02-23T14:04:38.128Z,4808.00
2019-02-23T14:05:38.122Z,4796.00
2019-02-23T14:06:38.118Z,4800.00
2019-02-23T14:07:38.137Z,4800.00
2019-02-23T14:08:38.127Z,4764.00
2019-02-23T14:09:38.093Z,4744.00
2019-02-23T14:10:38.091Z,4688.00
2019-02-23T14:11:38.087Z,4652.00
2019-02-23T14:12:38.073Z,4684.00
2019-02-23T14:13:38.078Z,4652.00
2019-02-23T14:14:38.062Z,4744.00
2019-02-23T14:15:38.056Z,4808.00
2019-02-23T14:16:38.047Z,4820.00
2019-02-23T14:17:38.041Z,4828.00
2019-02-23T14:18:38.036Z,4776.00
2019-02-23T14:19:38.030Z,4884.00
2019-02-23T14:20:38.021Z,4916.00
2019-02-23T14:21:38.008Z,4892.00
2019-02-23T14:22:38.011Z,4904.00
2019-02-23T14:23:38.000Z,4848.00
2019-02-23T14:24:38.006Z,4824.00
2019-02-23T14:25:37.986Z,4796.00
2019-02-23T14:26:37.985Z,4680.00
2019-02-23T14:27:37.990Z,4648.00
2019-02-23T14:28:37.966Z,4660.00
2019-02-23T14:29:37.959Z,4688.00
2019-02-23T14:30:37.950Z,4660.00
2019-02-23T14:31:37.944Z,4788.00
2019-02-23T14:32:37.937Z,4864.00
2019-02-23T14:33:37.933Z,4904.00
2019-02-23T14:34:37.924Z,4940.00
2019-02-23T14:35:37.937Z,4984.00
2019-02-23T14:36:37.967Z,5020.00
2019-02-23T14:37:37.903Z,5112.00
2019-02-23T14:38:37.933Z,5176.00
2019-02-23T14:39:37.890Z,5240.00
2019-02-23T14:40:37.948Z,5272.00
2019-02-23T14:41:37.876Z,5276.00
2019-02-23T14:42:37.965Z,5268.00
2019-02-23T14:43:37.867Z,5244.00
2019-02-23T14:44:37.853Z,5196.00
2019-02-23T14:45:40.027Z,5104.00
2019-02-23T14:46:39.538Z,5112.00
2019-02-23T14:47:37.864Z,5060.00
2019-02-23T14:48:37.826Z,5052.00
2019-02-23T14:49:37.822Z,5168.00
2019-02-23T14:50:37.813Z,5200.00
2019-02-23T14:51:37.810Z,5176.00
2019-02-23T14:52:37.804Z,5260.00
2019-02-23T14:53:37.833Z,5416.00
2019-02-23T14:54:37.796Z,5572.00
2019-02-23T14:55:39.817Z,5540.00
2019-02-23T14:56:37.776Z,5596.00
2019-02-23T14:57:37.784Z,5624.00
2019-02-23T14:58:37.761Z,5600.00
2019-02-23T14:59:37.762Z,5460.00
2019-02-23T15:00:37.743Z,5504.00
2019-02-23T15:01:37.739Z,5476.00
2019-02-23T15:02:37.739Z,5532.00
2019-02-23T15:03:37.722Z,5416.00
2019-02-23T15:04:37.713Z,5472.00
2019-02-23T15:05:37.710Z,5700.00
2019-02-23T15:06:37.702Z,5696.00
2019-02-23T15:07:37.697Z,5596.00
2019-02-23T15:08:37.688Z,5496.00